Winnerscup USA - LIVE OAK 250

Station: LIVE OAK - A Race

Distance: 250 Miles

Release: 05-Jun-2018 06:15

Weather Release: clear, optimum    Arrival: RAIN

Wind at Release: slight variable     Wind at Arrival: slight variable

Temp at Release: 60°    Temp at Arrival: 67 THEN°

Lofts: 53

Birds: 56

Clocked: 42

HEAVY RAIN THE LAST 50 MILES / THUNDERSTORM
Drops Pos Breeder Pigeon Name Color Sex Ent Arrival Speed To Win Eligible AB
1666 1 Daehn/Miele - FL 0402-AU17-NWFI Scheckles BB C 1 14:20:05.00 907.061 00:00:00 Yes
5154 2 Ken Easley-Silvercreek - NM 5156-AU17-ESLY Leanna BCW H 1 14:21:33.00 904.326 00:01:28 Yes
3769 3 Tanai Kantisiri - CA 2928-AU17-COM Platinum BB C 1 14:21:38.00 904.172 00:01:33 Yes
1000 4 Champ Camp - IN 0275-AU17-CHMP Scirrocco BB H 1 14:53:39.00 848.356 00:33:34 Yes
2395 5 Daehn/Miele - FL 0401-AU17-NWFI Super Man BB C 2 14:53:42.00 848.275 00:33:37 Yes
1000 6 Daehn/Miele - FL 3836-AU17-FOYS Lasting Impression BB C 3 14:53:45.00 848.193 00:33:40 Yes
500 7 Sarrett Racing Pigeons - TX 7048-AU17-PPH Target' BB H 1 14:53:53.00 847.975 00:33:48 Yes
5500 8 Nesler Boyz - CA 1800-AU17-TCH Destined Choice RGRI H 1 15:30:50.00 791.604 01:10:45 Yes
500 9 Walstons Warriors - NC 7410-AU17-GL Dullah Bhati BB C 1 15:38:06.00 781.389 01:18:01 Yes
500 10 Daehn/Miele - FL 3831-AU17-FOYS Kaapi BC C 4 15:40:42.00 777.797 01:20:37 Yes
500 11 Hollywood Lou Loft - FL 0063-AU17-LOU The Celebrity BB C 1 15:41:07.00 777.225 01:21:02 Yes
1930 12 Ganus Family Loft - IN 0292-AU17-GFL Planet Icon BC H 1 15:48:19.00 767.464 01:28:14 Yes
250 13 A D L Sheila - IL 0225-AU17-ADL Outlaw Josey Wells BCW C 1 15:48:26.00 767.308 01:28:21 Yes
250 14 Sextons Loft - IA 31763-AU17-AA New Apollo BC C 1 15:48:33.00 767.152 01:28:28 Yes
250 15 Prout Loft - CA 28550-AU17-JEDD TABLOID BC C 1 15:51:19.00 763.469 01:31:14 Yes
250 16 Nesler Boyz - CA 1764-AU17-TCH Tag Me Sold BB H 2 16:04:36.00 746.269 01:44:31 Yes
250 17 Sofija Loft - IL 0011-AU17-BEKO Ludacris BBPD C 1 16:13:44.00 734.885 01:53:39 Yes
18 Canto & Wiltz - MA 10998-AU17-AA Orbitaar BB C 1 16:13:51.00 734.742 01:53:46 Yes
19 Sienna Loft - NC 36811-AU17-AA Big Blue BB C 1 16:19:23.00 728.015 01:59:18 Yes
20 Bieche-Stevenson - CA 7477-AU17-BIEC Second Opinion BB C 1 16:22:52.00 723.843 02:02:47 Yes
21 Dal-Tex R P C - TX 0448-AU17-DLLS Esmeralda BC H 1 16:53:00.00 689.655 02:32:55 Yes
22 Hollywood Lou Loft - FL 0064-AU17-LOU American South BB C 2 17:20:14.00 661.422 03:00:09 Yes
23 Goshentown Lofts - TN 1796-AU17-NPA Dossier 96 BB H 1 17:32:54.00 649.063 03:12:49 Yes
24 Ganus Family Loft - IN 0223-AU17-GFL Meteor Man DCWP C 2 17:32:56.00 649.031 03:12:51 Yes
25 Team Fujitake - HI 13911-AU17-FOYS Blue Hilo BBWF H 1 17:43:58.00 638.638 03:23:53 Yes
26 Huan Qiu Zhang - NC 1709-AU17-JNC Kryto Run BB C 1 17:55:41.00 627.958 03:35:36 Yes
27 Daehn/Miele - FL 3837-AU17-FOYS French Braid BB H 5 17:57:10.00 626.632 03:37:05 Yes
28 A P C Loft - TX 17377-AU17-APC Tantric Sleeper SMOK H 1 18:01:03.00 623.185 03:40:58 Yes
29 P/R Loft - CA 0282-AU17-GSF Mezmerise BB H 1 18:04:03.00 620.549 03:43:58 Yes
30 Tar Syndicate - PA 7976-AU17-TAR Game to Win DC C 1 19:04:29.00 571.812 04:44:24 Yes
31 Nesneb Racing Loft - AL 17146-AU17-MOB Done That BBWF C 1 06:01:35.00 486.188 06:59:55 Yes
32 Sextons Loft - IA 31762-AU17-AA Ladesma BC H 2 2018-06-06 07:08:25.00 458.134 07:55:20 Yes
33 Daehn/Miele - FL 3832-AU17-FOYS Redefined Exit BC C 6 2018-06-06 07:22:39.00 451.444 08:09:34 Yes
34 Bolgar Loft - CA 7641-AU17-FTST KID KIEV CP C 1 2018-06-06 07:23:06.00 451.236 08:10:01 Yes
35 Joe Zarachowicz - MD 2284-AU17-CCC Never Too Late GR C 1 2018-06-06 08:00:48.00 434.439 08:47:43 Yes
36 A P C Loft - TX 17353-AU17-APC Miss HighTower BB H 2 2018-06-06 09:24:41.00 401.210 10:11:36 Yes
37 A B C Loft2 - NY 59759-AU17-ARPU Cleopatra BC H 1 2018-06-06 11:36:14.00 358.238 12:23:09 Yes
38 Bolgar Loft - CA 7650-AU17-FTST Red Dawn RC H 2 2018-06-06 12:06:22.00 349.660 12:53:17 Yes
39 G & L Loft - OR 2392-AU17-WPC American Standard BWFP C 1 2018-06-06 12:10:16.00 348.579 12:57:11 Yes
40 Jack's Loft - CA 36711-AU17-ARPU Alamaar RGRZ H 1 2018-06-06 12:19:57.00 345.926 13:06:52 Yes
41 Champ Camp - IN 0225-AU17-CHMP Point Well Taken BB C 2 2018-06-07 05:37:44.00 242.692 22:07:55 Yes
42 P/R Loft - CA 0279-AU17-GSF Desciple BCW C 2 2018-06-07 17:00:38.00 178.816 32:55:33 Yes
0 Larry Lewis - OK 8146-AU17-TRPC No Exemption BC C 00:00:00.00 0.000 Yes
0 A B C Loft2 - NY 59780-AU17-ARPU National Asset BB C 00:00:00.00 0.000 Yes
0 Ken Easley-Silvercreek - NM 5151-AU17-ESLY Urban Kone BB C 00:00:00.00 0.000 Yes
0 Jack's Loft - CA 4393-AU17-FOYS Today's Hero SIL C 00:00:00.00 0.000 Yes
0 A D L Loft - IL 0192-AU17-ADL Over Achiever BBWF C 00:00:00.00 0.000 Yes
0 Acre Farms - CA 0346-AU17-GENE Take 5 BC C 00:00:00.00 0.000 Yes
0 Dream Team - VT 0576-AU17-JCZL Maze Runner BB C 00:00:00.00 0.000 Yes
0 John Partridge - CA 0619-AU17-PASO Moon Twister BC H 00:00:00.00 0.000 Yes
0 Ganus Family Loft - IN 0955-AU17-GFL Spritz BC C 00:00:00.00 0.000 Yes
0 A B C Loft2 - NY 11771-AU17-ARPU Etherium BB C 00:00:00.00 0.000 Yes
0 Tar Syndicate - PA 12035-AU17-LLP Syndicate BC H 00:00:00.00 0.000 Yes
0 G & L Loft - OR 2394-AU17-WPC Affirmation BB C 00:00:00.00 0.000 Yes
0 Tanai Kantisiri - CA 2929-AU17-COM Prelude BB H 00:00:00.00 0.000 Yes
0 Ojibwe Loft - OK 0042-AU17-OJIB Desert Wren BC H 00:00:00.00 0.000 Yes

There are 262 bird records

Note: These Race Results are unofficial and subject to change until verified by the Race Committee and declared final.